sensor_id;sensor_type;location;lat;lon;timestamp;pressure;altitude;pressure_sealevel;temperature;humidity
29383;BME280;16365;51.598;7.668;2022-12-10T00:02:01;100132.56;;;6.99;51.04
29383;BME280;16365;51.598;7.668;2022-12-10T00:04:28;100146.03;;;7.00;51.02
29383;BME280;16365;51.598;7.668;2022-12-10T00:06:54;100137.75;;;7.00;51.10
29383;BME280;16365;51.598;7.668;2022-12-10T00:09:21;100146.53;;;7.02;50.96
29383;BME280;16365;51.598;7.668;2022-12-10T00:11:48;100147.34;;;7.03;51.10
29383;BME280;16365;51.598;7.668;2022-12-10T00:14:15;100150.59;;;7.05;51.38
29383;BME280;16365;51.598;7.668;2022-12-10T00:16:42;100149.44;;;7.06;51.19
29383;BME280;16365;51.598;7.668;2022-12-10T00:19:08;100151.91;;;7.07;51.28
29383;BME280;16365;51.598;7.668;2022-12-10T00:21:35;100155.16;;;7.09;50.86
29383;BME280;16365;51.598;7.668;2022-12-10T00:24:03;100152.91;;;7.11;50.85
29383;BME280;16365;51.598;7.668;2022-12-10T00:26:33;100152.56;;;7.13;50.99
29383;BME280;16365;51.598;7.668;2022-12-10T00:29:03;100155.81;;;7.15;50.96
29383;BME280;16365;51.598;7.668;2022-12-10T00:31:32;100150.00;;;7.16;51.15
29383;BME280;16365;51.598;7.668;2022-12-10T00:34:02;100154.38;;;7.17;50.83
29383;BME280;16365;51.598;7.668;2022-12-10T00:36:35;100149.66;;;7.18;51.28
29383;BME280;16365;51.598;7.668;2022-12-10T00:39:03;100149.34;;;7.19;50.72
29383;BME280;16365;51.598;7.668;2022-12-10T00:41:30;100154.56;;;7.21;50.71
29383;BME280;16365;51.598;7.668;2022-12-10T00:43:57;100160.88;;;7.21;50.77
29383;BME280;16365;51.598;7.668;2022-12-10T00:46:23;100150.66;;;7.22;50.54
29383;BME280;16365;51.598;7.668;2022-12-10T00:48:50;100149.53;;;7.23;50.74
29383;BME280;16365;51.598;7.668;2022-12-10T00:51:21;100156.19;;;7.22;51.07
29383;BME280;16365;51.598;7.668;2022-12-10T00:53:50;100155.38;;;7.21;50.91
29383;BME280;16365;51.598;7.668;2022-12-10T00:56:18;100156.19;;;7.22;50.76
29383;BME280;16365;51.598;7.668;2022-12-10T00:58:46;100158.13;;;7.21;50.94
29383;BME280;16365;51.598;7.668;2022-12-10T01:01:16;100155.38;;;7.21;51.06
29383;BME280;16365;51.598;7.668;2022-12-10T01:03:44;100154.22;;;7.22;50.90
29383;BME280;16365;51.598;7.668;2022-12-10T01:06:23;100154.22;;;7.22;51.02
29383;BME280;16365;51.598;7.668;2022-12-10T01:08:52;100159.41;;;7.24;50.79
29383;BME280;16365;51.598;7.668;2022-12-10T01:11:20;100160.22;;;7.25;50.64
29383;BME280;16365;51.598;7.668;2022-12-10T01:13:48;100159.41;;;7.24;50.87
29383;BME280;16365;51.598;7.668;2022-12-10T01:16:18;100162.50;;;7.22;50.86
29383;BME280;16365;51.598;7.668;2022-12-10T01:18:44;100166.88;;;7.24;51.24
29383;BME280;16365;51.598;7.668;2022-12-10T01:21:14;100157.78;;;7.23;51.24
29383;BME280;16365;51.598;7.668;2022-12-10T01:23:42;100167.22;;;7.22;50.84
29383;BME280;16365;51.598;7.668;2022-12-10T01:26:12;100165.59;;;7.21;50.98
29383;BME280;16365;51.598;7.668;2022-12-10T01:28:40;100170.78;;;7.22;51.04
29383;BME280;16365;51.598;7.668;2022-12-10T01:31:09;100169.63;;;7.24;50.83
29383;BME280;16365;51.598;7.668;2022-12-10T01:33:37;100175.16;;;7.24;50.89
29383;BME280;16365;51.598;7.668;2022-12-10T01:36:10;100172.06;;;7.25;51.02
29383;BME280;16365;51.598;7.668;2022-12-10T01:38:37;100172.56;;;7.27;51.02
29383;BME280;16365;51.598;7.668;2022-12-10T01:41:05;100180.84;;;7.27;50.71
29383;BME280;16365;51.598;7.668;2022-12-10T01:46:45;100185.56;;;7.27;51.10
29383;BME280;16365;51.598;7.668;2022-12-10T01:49:17;100179.38;;;7.30;50.69
29383;BME280;16365;51.598;7.668;2022-12-10T01:51:48;100183.47;;;7.32;50.80
29383;BME280;16365;51.598;7.668;2022-12-10T01:54:18;100187.50;;;7.35;50.99
29383;BME280;16365;51.598;7.668;2022-12-10T01:56:50;100180.06;;;7.35;51.17
29383;BME280;16365;51.598;7.668;2022-12-10T01:59:20;100184.94;;;7.38;51.02
29383;BME280;16365;51.598;7.668;2022-12-10T02:01:52;100192.91;;;7.40;50.44
29383;BME280;16365;51.598;7.668;2022-12-10T02:04:33;100191.59;;;7.37;51.01
29383;BME280;16365;51.598;7.668;2022-12-10T02:07:10;100189.63;;;7.38;51.17
29383;BME280;16365;51.598;7.668;2022-12-10T02:10:02;100195.97;;;7.38;50.84
29383;BME280;16365;51.598;7.668;2022-12-10T02:12:47;100192.06;;;7.39;51.01
29383;BME280;16365;51.598;7.668;2022-12-10T02:15:18;100191.44;;;7.42;50.58
29383;BME280;16365;51.598;7.668;2022-12-10T02:17:50;100200.03;;;7.41;50.70
29383;BME280;16365;51.598;7.668;2022-12-10T02:20:30;100189.00;;;7.41;50.49
29383;BME280;16365;51.598;7.668;2022-12-10T02:23:05;100187.06;;;7.41;50.72
29383;BME280;16365;51.598;7.668;2022-12-10T02:26:11;100189.31;;;7.39;51.17
29383;BME280;16365;51.598;7.668;2022-12-10T02:31:23;100180.41;;;7.42;51.13
29383;BME280;16365;51.598;7.668;2022-12-10T02:33:54;100183.97;;;7.43;50.61
29383;BME280;16365;51.598;7.668;2022-12-10T02:36:22;100175.38;;;7.44;50.12
29383;BME280;16365;51.598;7.668;2022-12-10T02:38:51;100179.78;;;7.45;50.42
29383;BME280;16365;51.598;7.668;2022-12-10T02:41:25;100184.16;;;7.46;49.95
29383;BME280;16365;51.598;7.668;2022-12-10T02:43:55;100178.97;;;7.45;50.40
29383;BME280;16365;51.598;7.668;2022-12-10T02:46:24;100181.72;;;7.45;49.72
29383;BME280;16365;51.598;7.668;2022-12-10T02:48:52;100178.13;;;7.44;49.64
29383;BME280;16365;51.598;7.668;2022-12-10T02:51:19;100178.97;;;7.45;49.82
29383;BME280;16365;51.598;7.668;2022-12-10T02:53:46;100185.28;;;7.45;49.24
29383;BME280;16365;51.598;7.668;2022-12-10T02:56:34;100181.22;;;7.43;48.42
29383;BME280;16365;51.598;7.668;2022-12-10T02:59:16;100174.25;;;7.45;48.12
29383;BME280;16365;51.598;7.668;2022-12-10T03:02:27;100176.34;;;7.48;48.41
29383;BME280;16365;51.598;7.668;2022-12-10T03:05:04;100186.75;;;7.52;48.63
29383;BME280;16365;51.598;7.668;2022-12-10T03:10:33;100186.13;;;7.55;48.80
29383;BME280;16365;51.598;7.668;2022-12-10T03:13:06;100179.47;;;7.56;49.60
29383;BME280;16365;51.598;7.668;2022-12-10T03:15:36;100179.97;;;7.58;49.45
29383;BME280;16365;51.598;7.668;2022-12-10T03:18:06;100185.97;;;7.60;49.80
29383;BME280;16365;51.598;7.668;2022-12-10T03:20:38;100192.31;;;7.60;49.11
29383;BME280;16365;51.598;7.668;2022-12-10T03:23:09;100197.81;;;7.60;49.86
29383;BME280;16365;51.598;7.668;2022-12-10T03:25:37;100188.06;;;7.63;49.67
29383;BME280;16365;51.598;7.668;2022-12-10T03:28:06;100188.88;;;7.63;49.59
29383;BME280;16365;51.598;7.668;2022-12-10T03:30:35;100192.47;;;7.64;49.87
29383;BME280;16365;51.598;7.668;2022-12-10T03:33:02;100186.63;;;7.65;49.25
29383;BME280;16365;51.598;7.668;2022-12-10T03:35:30;100191.81;;;7.67;49.14
29383;BME280;16365;51.598;7.668;2022-12-10T03:37:56;100193.16;;;7.69;49.02
29383;BME280;16365;51.598;7.668;2022-12-10T03:40:24;100195.09;;;7.69;48.54
29383;BME280;16365;51.598;7.668;2022-12-10T03:42:51;100191.19;;;7.70;48.51
29383;BME280;16365;51.598;7.668;2022-12-10T03:45:18;100190.38;;;7.69;48.60
29383;BME280;16365;51.598;7.668;2022-12-10T03:47:44;100194.75;;;7.70;48.59
29383;BME280;16365;51.598;7.668;2022-12-10T03:50:11;100194.44;;;7.72;48.94
29383;BME280;16365;51.598;7.668;2022-12-10T03:52:38;100204.31;;;7.73;49.10
29383;BME280;16365;51.598;7.668;2022-12-10T03:55:05;100196.38;;;7.71;48.33
29383;BME280;16365;51.598;7.668;2022-12-10T03:57:33;100198.81;;;7.73;48.52
29383;BME280;16365;51.598;7.668;2022-12-10T04:00:00;100199.63;;;7.73;48.37
29383;BME280;16365;51.598;7.668;2022-12-10T04:02:27;100198.50;;;7.75;48.81
29383;BME280;16365;51.598;7.668;2022-12-10T04:04:53;100192.19;;;7.74;48.89
29383;BME280;16365;51.598;7.668;2022-12-10T04:07:20;100196.06;;;7.73;48.43
29383;BME280;16365;51.598;7.668;2022-12-10T04:09:46;100194.44;;;7.72;48.77
29383;BME280;16365;51.598;7.668;2022-12-10T04:12:13;100192.81;;;7.71;48.51
29383;BME280;16365;51.598;7.668;2022-12-10T04:14:39;100195.91;;;7.69;48.00
29383;BME280;16365;51.598;7.668;2022-12-10T04:17:24;100194.25;;;7.68;48.37
29383;BME280;16365;51.598;7.668;2022-12-10T04:19:51;100206.44;;;7.67;48.22
29383;BME280;16365;51.598;7.668;2022-12-10T04:22:17;100198.47;;;7.66;48.37
29383;BME280;16365;51.598;7.668;2022-12-10T04:25:02;100203.19;;;7.65;48.43
29383;BME280;16365;51.598;7.668;2022-12-10T04:27:47;100203.19;;;7.65;48.17
29383;BME280;16365;51.598;7.668;2022-12-10T04:30:14;100206.75;;;7.66;47.91
29383;BME280;16365;51.598;7.668;2022-12-10T04:32:40;100204.81;;;7.66;48.23
29383;BME280;16365;51.598;7.668;2022-12-10T04:35:07;100196.88;;;7.65;48.24
29383;BME280;16365;51.598;7.668;2022-12-10T04:37:34;100193.28;;;7.64;48.21
29383;BME280;16365;51.598;7.668;2022-12-10T04:40:00;100195.22;;;7.64;48.26
29383;BME280;16365;51.598;7.668;2022-12-10T04:42:27;100196.06;;;7.64;48.15
29383;BME280;16365;51.598;7.668;2022-12-10T04:44:53;100201.56;;;7.64;48.07
29383;BME280;16365;51.598;7.668;2022-12-10T04:47:20;100196.53;;;7.66;47.95
29383;BME280;16365;51.598;7.668;2022-12-10T04:49:46;100210.31;;;7.66;47.93
29383;BME280;16365;51.598;7.668;2022-12-10T04:52:14;100202.06;;;7.66;48.06
29383;BME280;16365;51.598;7.668;2022-12-10T04:54:41;100204.19;;;7.69;48.33
29383;BME280;16365;51.598;7.668;2022-12-10T04:57:08;100203.03;;;7.70;47.93
29383;BME280;16365;51.598;7.668;2022-12-10T04:59:35;100207.41;;;7.71;47.79
29383;BME280;16365;51.598;7.668;2022-12-10T05:02:04;100201.09;;;7.71;47.45
29383;BME280;16365;51.598;7.668;2022-12-10T05:04:30;100201.56;;;7.73;47.51
29383;BME280;16365;51.598;7.668;2022-12-10T05:06:57;100203.53;;;7.72;47.51
29383;BME280;16365;51.598;7.668;2022-12-10T05:09:24;100214.56;;;7.72;47.62
29383;BME280;16365;51.598;7.668;2022-12-10T05:11:51;100218.47;;;7.71;47.43
29383;BME280;16365;51.598;7.668;2022-12-10T05:14:17;100212.47;;;7.69;47.81
29383;BME280;16365;51.598;7.668;2022-12-10T05:16:44;100215.22;;;7.69;47.49
29383;BME280;16365;51.598;7.668;2022-12-10T05:19:11;100217.47;;;7.67;47.84
29383;BME280;16365;51.598;7.668;2022-12-10T05:21:38;100211.94;;;7.67;47.81
29383;BME280;16365;51.598;7.668;2022-12-10T05:24:23;100220.22;;;7.67;47.23
29383;BME280;16365;51.598;7.668;2022-12-10T05:26:50;100217.78;;;7.66;47.79
29383;BME280;16365;51.598;7.668;2022-12-10T05:29:18;100229.97;;;7.65;47.69
29383;BME280;16365;51.598;7.668;2022-12-10T05:31:44;100221.19;;;7.63;47.51
29383;BME280;16365;51.598;7.668;2022-12-10T05:34:13;100223.94;;;7.63;47.84
29383;BME280;16365;51.598;7.668;2022-12-10T05:36:39;100220.03;;;7.64;47.83
29383;BME280;16365;51.598;7.668;2022-12-10T05:39:07;100216.47;;;7.63;47.63
29383;BME280;16365;51.598;7.668;2022-12-10T05:41:36;100214.03;;;7.62;47.61
29383;BME280;16365;51.598;7.668;2022-12-10T05:44:04;100221.19;;;7.63;47.44
29383;BME280;16365;51.598;7.668;2022-12-10T05:46:32;100217.63;;;7.62;47.35
29383;BME280;16365;51.598;7.668;2022-12-10T05:49:00;100217.63;;;7.62;47.37
29383;BME280;16365;51.598;7.668;2022-12-10T05:51:29;100227.03;;;7.61;47.34
29383;BME280;16365;51.598;7.668;2022-12-10T05:53:57;100228.16;;;7.60;47.60
29383;BME280;16365;51.598;7.668;2022-12-10T05:56:25;100222.31;;;7.62;47.03
29383;BME280;16365;51.598;7.668;2022-12-10T05:58:54;100230.59;;;7.62;47.52
29383;BME280;16365;51.598;7.668;2022-12-10T06:01:23;100227.84;;;7.62;47.06
29383;BME280;16365;51.598;7.668;2022-12-10T06:03:50;100232.56;;;7.61;46.82
29383;BME280;16365;51.598;7.668;2022-12-10T06:06:22;100234.50;;;7.61;46.97
29383;BME280;16365;51.598;7.668;2022-12-10T06:08:50;100237.25;;;7.61;47.34
29383;BME280;16365;51.598;7.668;2022-12-10T06:11:18;100230.59;;;7.62;47.59
29383;BME280;16365;51.598;7.668;2022-12-10T06:13:46;100234.69;;;7.64;46.99
29383;BME280;16365;51.598;7.668;2022-12-10T06:16:21;100225.75;;;7.67;47.66
29383;BME280;16365;51.598;7.668;2022-12-10T06:18:47;100222.19;;;7.67;47.06
29383;BME280;16365;51.598;7.668;2022-12-10T06:21:15;100226.41;;;7.64;47.11
29383;BME280;16365;51.598;7.668;2022-12-10T06:23:42;100229.16;;;7.64;47.11
29383;BME280;16365;51.598;7.668;2022-12-10T06:26:21;100223.78;;;7.59;46.51
29383;BME280;16365;51.598;7.668;2022-12-10T06:28:49;100226.22;;;7.61;47.29
29383;BME280;16365;51.598;7.668;2022-12-10T06:31:18;100235.31;;;7.61;47.28
29383;BME280;16365;51.598;7.668;2022-12-10T06:33:45;100232.06;;;7.59;47.51
29383;BME280;16365;51.598;7.668;2022-12-10T06:36:14;100232.06;;;7.59;47.11
29383;BME280;16365;51.598;7.668;2022-12-10T06:38:41;100230.13;;;7.60;47.62
29383;BME280;16365;51.598;7.668;2022-12-10T06:41:11;100236.44;;;7.60;47.03
29383;BME280;16365;51.598;7.668;2022-12-10T06:43:37;100241.44;;;7.58;47.12
29383;BME280;16365;51.598;7.668;2022-12-10T06:46:09;100237.41;;;7.56;46.30
29383;BME280;16365;51.598;7.668;2022-12-10T06:48:36;100240.16;;;7.56;46.75
29383;BME280;16365;51.598;7.668;2022-12-10T06:51:03;100242.41;;;7.54;46.89
29383;BME280;16365;51.598;7.668;2022-12-10T06:53:31;100243.22;;;7.54;46.78
29383;BME280;16365;51.598;7.668;2022-12-10T06:55:59;100251.50;;;7.54;46.65
29383;BME280;16365;51.598;7.668;2022-12-10T06:58:27;100257.00;;;7.54;46.76
29383;BME280;16365;51.598;7.668;2022-12-10T07:01:05;100255.38;;;7.53;46.22
29383;BME280;16365;51.598;7.668;2022-12-10T07:03:32;100265.28;;;7.54;46.92
29383;BME280;16365;51.598;7.668;2022-12-10T07:06:00;100270.00;;;7.54;47.16
29383;BME280;16365;51.598;7.668;2022-12-10T07:08:27;100264.47;;;7.54;47.21
29383;BME280;16365;51.598;7.668;2022-12-10T07:10:54;100262.53;;;7.54;46.54
29383;BME280;16365;51.598;7.668;2022-12-10T07:13:21;100265.00;;;7.56;47.17
29383;BME280;16365;51.598;7.668;2022-12-10T07:15:55;100263.84;;;7.57;46.72
29383;BME280;16365;51.598;7.668;2022-12-10T07:18:21;100266.59;;;7.57;46.91
29383;BME280;16365;51.598;7.668;2022-12-10T07:20:48;100268.56;;;7.56;46.95
29383;BME280;16365;51.598;7.668;2022-12-10T07:23:14;100274.06;;;7.56;47.03
29383;BME280;16365;51.598;7.668;2022-12-10T07:25:41;100279.91;;;7.55;47.13
29383;BME280;16365;51.598;7.668;2022-12-10T07:28:07;100273.88;;;7.53;46.98
29383;BME280;16365;51.598;7.668;2022-12-10T07:30:34;100276.97;;;7.51;46.61
29383;BME280;16365;51.598;7.668;2022-12-10T07:33:02;100288.00;;;7.51;46.50
29383;BME280;16365;51.598;7.668;2022-12-10T07:35:29;100285.56;;;7.50;46.36
29383;BME280;16365;51.598;7.668;2022-12-10T07:37:55;100293.00;;;7.49;46.82
29383;BME280;16365;51.598;7.668;2022-12-10T07:40:22;100298.03;;;7.47;46.59
29383;BME280;16365;51.598;7.668;2022-12-10T07:42:48;100290.91;;;7.46;46.23
29383;BME280;16365;51.598;7.668;2022-12-10T07:45:14;100284.88;;;7.44;46.19
29383;BME280;16365;51.598;7.668;2022-12-10T07:47:41;100283.25;;;7.43;46.43
29383;BME280;16365;51.598;7.668;2022-12-10T07:50:07;100278.41;;;7.40;46.23
29383;BME280;16365;51.598;7.668;2022-12-10T07:52:34;100281.44;;;7.38;46.58
29383;BME280;16365;51.598;7.668;2022-12-10T07:55:01;100280.97;;;7.36;46.39
29383;BME280;16365;51.598;7.668;2022-12-10T07:57:28;100287.09;;;7.33;46.36
29383;BME280;16365;51.598;7.668;2022-12-10T07:59:55;100282.72;;;7.32;46.79
29383;BME280;16365;51.598;7.668;2022-12-10T08:02:21;100287.75;;;7.30;46.81
29383;BME280;16365;51.598;7.668;2022-12-10T08:04:48;100287.88;;;7.25;46.27
29383;BME280;16365;51.598;7.668;2022-12-10T08:07:15;100286.88;;;7.21;46.45
29383;BME280;16365;51.598;7.668;2022-12-10T08:09:41;100296.09;;;7.16;46.28
29383;BME280;16365;51.598;7.668;2022-12-10T08:12:08;100300.94;;;7.11;46.41
29383;BME280;16365;51.598;7.668;2022-12-10T08:14:34;100294.44;;;7.07;46.73
29383;BME280;16365;51.598;7.668;2022-12-10T08:17:02;100296.50;;;7.01;46.27
29383;BME280;16365;51.598;7.668;2022-12-10T08:19:29;100296.00;;;6.99;46.65
29383;BME280;16365;51.598;7.668;2022-12-10T08:21:57;100306.53;;;6.97;46.79
29383;BME280;16365;51.598;7.668;2022-12-10T08:24:24;100304.88;;;6.96;47.19
29383;BME280;16365;51.598;7.668;2022-12-10T08:26:50;100311.50;;;6.95;47.21
29383;BME280;16365;51.598;7.668;2022-12-10T08:29:16;100313.47;;;6.94;46.97
29383;BME280;16365;51.598;7.668;2022-12-10T08:31:43;100316.75;;;6.97;46.91
29383;BME280;16365;51.598;7.668;2022-12-10T08:34:15;100313.13;;;6.96;46.78
29383;BME280;16365;51.598;7.668;2022-12-10T08:36:42;100316.75;;;6.97;47.19
29383;BME280;16365;51.598;7.668;2022-12-10T08:39:09;100318.03;;;6.99;47.29
29383;BME280;16365;51.598;7.668;2022-12-10T08:41:44;100320.47;;;7.01;47.30
29383;BME280;16365;51.598;7.668;2022-12-10T08:44:11;100322.59;;;7.04;47.33
29383;BME280;16365;51.598;7.668;2022-12-10T08:46:38;100331.88;;;7.08;47.38
29383;BME280;16365;51.598;7.668;2022-12-10T08:49:07;100330.44;;;7.10;47.16
29383;BME280;16365;51.598;7.668;2022-12-10T08:51:34;100335.00;;;7.15;47.35
29383;BME280;16365;51.598;7.668;2022-12-10T08:54:01;100340.38;;;7.20;47.18
29383;BME280;16365;51.598;7.668;2022-12-10T08:56:27;100341.38;;;7.24;47.54
29383;BME280;16365;51.598;7.668;2022-12-10T08:58:54;100335.25;;;7.27;47.20
29383;BME280;16365;51.598;7.668;2022-12-10T09:01:20;100342.59;;;7.32;47.07
29383;BME280;16365;51.598;7.668;2022-12-10T09:03:47;100343.25;;;7.37;47.42
29383;BME280;16365;51.598;7.668;2022-12-10T09:06:17;100347.63;;;7.38;46.85
29383;BME280;16365;51.598;7.668;2022-12-10T09:08:46;100353.34;;;7.42;46.90
29383;BME280;16365;51.598;7.668;2022-12-10T09:11:16;100356.28;;;7.45;46.96
29383;BME280;16365;51.598;7.668;2022-12-10T09:13:44;100360.34;;;7.48;47.22
29383;BME280;16365;51.598;7.668;2022-12-10T09:16:10;100366.88;;;7.52;47.30
29383;BME280;16365;51.598;7.668;2022-12-10T09:18:37;100364.59;;;7.54;46.77
29383;BME280;16365;51.598;7.668;2022-12-10T09:21:08;100361.53;;;7.56;46.75
29383;BME280;16365;51.598;7.668;2022-12-10T09:23:35;100363.97;;;7.57;46.95
29383;BME280;16365;51.598;7.668;2022-12-10T09:26:05;100373.88;;;7.58;46.47
29383;BME280;16365;51.598;7.668;2022-12-10T09:28:32;100370.50;;;7.61;47.09
29383;BME280;16365;51.598;7.668;2022-12-10T09:30:59;100381.19;;;7.63;46.71
29383;BME280;16365;51.598;7.668;2022-12-10T09:33:27;100377.00;;;7.65;46.78
29383;BME280;16365;51.598;7.668;2022-12-10T09:36:03;100375.88;;;7.66;46.05
29383;BME280;16365;51.598;7.668;2022-12-10T09:38:30;100382.06;;;7.72;46.49
29383;BME280;16365;51.598;7.668;2022-12-10T09:41:54;100372.66;;;7.73;45.94
29383;BME280;16365;51.598;7.668;2022-12-10T09:46:58;100368.44;;;7.76;45.59
29383;BME280;16365;51.598;7.668;2022-12-10T09:52:09;100364.41;;;7.82;46.43
29383;BME280;16365;51.598;7.668;2022-12-10T09:54:45;100378.22;;;7.82;45.62
29383;BME280;16365;51.598;7.668;2022-12-10T09:57:27;100368.50;;;7.84;46.36
29383;BME280;16365;51.598;7.668;2022-12-10T09:59:55;100359.88;;;7.86;46.73
29383;BME280;16365;51.598;7.668;2022-12-10T10:02:28;100369.78;;;7.87;46.56
29383;BME280;16365;51.598;7.668;2022-12-10T10:07:36;100365.78;;;7.93;46.82
29383;BME280;16365;51.598;7.668;2022-12-10T10:10:11;100363.97;;;7.97;46.53
29383;BME280;16365;51.598;7.668;2022-12-10T10:12:43;100366.59;;;8.02;46.06
29383;BME280;16365;51.598;7.668;2022-12-10T10:15:16;100362.22;;;8.01;45.94
29383;BME280;16365;51.598;7.668;2022-12-10T10:17:43;100358.03;;;8.04;46.69
29383;BME280;16365;51.598;7.668;2022-12-10T10:20:13;100360.13;;;8.07;46.24
29383;BME280;16365;51.598;7.668;2022-12-10T10:22:42;100366.97;;;8.09;46.55
29383;BME280;16365;51.598;7.668;2022-12-10T10:25:18;100370.06;;;8.08;45.50
29383;BME280;16365;51.598;7.668;2022-12-10T10:27:45;100371.03;;;8.12;46.36
29383;BME280;16365;51.598;7.668;2022-12-10T10:30:21;100372.50;;;8.09;45.92
29383;BME280;16365;51.598;7.668;2022-12-10T10:32:52;100370.22;;;8.11;45.80
29383;BME280;16365;51.598;7.668;2022-12-10T10:35:30;100373.78;;;8.12;45.66
29383;BME280;16365;51.598;7.668;2022-12-10T10:38:05;100371.03;;;8.12;45.80
29383;BME280;16365;51.598;7.668;2022-12-10T10:40:40;100372.66;;;8.13;45.29
29383;BME280;16365;51.598;7.668;2022-12-10T10:43:18;100372.34;;;8.14;45.87
29383;BME280;16365;51.598;7.668;2022-12-10T10:46:01;100373.97;;;8.15;45.44
29383;BME280;16365;51.598;7.668;2022-12-10T10:48:29;100367.00;;;8.18;45.86
29383;BME280;16365;51.598;7.668;2022-12-10T10:56:08;100378.84;;;8.18;45.60
29383;BME280;16365;51.598;7.668;2022-12-10T10:58:44;100375.44;;;8.21;45.54
29383;BME280;16365;51.598;7.668;2022-12-10T11:01:13;100378.38;;;8.25;45.77
29383;BME280;16365;51.598;7.668;2022-12-10T11:03:47;100369.28;;;8.24;45.68
29383;BME280;16365;51.598;7.668;2022-12-10T11:06:16;100369.13;;;8.30;45.84
29383;BME280;16365;51.598;7.668;2022-12-10T11:08:45;100370.44;;;8.32;45.79
29383;BME280;16365;51.598;7.668;2022-12-10T11:11:20;100373.69;;;8.34;45.18
29383;BME280;16365;51.598;7.668;2022-12-10T11:13:48;100372.75;;;8.39;45.83
29383;BME280;16365;51.598;7.668;2022-12-10T11:16:17;100373.56;;;8.39;45.83
29383;BME280;16365;51.598;7.668;2022-12-10T11:19:18;100369.78;;;8.35;44.27
29383;BME280;16365;51.598;7.668;2022-12-10T11:21:45;100369.53;;;8.37;44.78
29383;BME280;16365;51.598;7.668;2022-12-10T11:24:16;100365.41;;;8.34;44.87
29383;BME280;16365;51.598;7.668;2022-12-10T11:27:00;100367.69;;;8.32;43.94
29383;BME280;16365;51.598;7.668;2022-12-10T11:29:46;100365.75;;;8.33;44.70
29383;BME280;16365;51.598;7.668;2022-12-10T11:32:39;100375.16;;;8.32;44.97
29383;BME280;16365;51.598;7.668;2022-12-10T11:38:17;100376.13;;;8.36;44.87
29383;BME280;16365;51.598;7.668;2022-12-10T11:46:42;100384.25;;;8.32;44.20
29383;BME280;16365;51.598;7.668;2022-12-10T11:52:36;100391.06;;;8.35;45.03
29383;BME280;16365;51.598;7.668;2022-12-10T11:55:33;100388.66;;;8.33;44.88
29383;BME280;16365;51.598;7.668;2022-12-10T12:01:00;100397.75;;;8.34;43.65
29383;BME280;16365;51.598;7.668;2022-12-10T12:03:48;100394.16;;;8.33;43.89
29383;BME280;16365;51.598;7.668;2022-12-10T12:09:27;100383.00;;;8.38;44.48
29383;BME280;16365;51.598;7.668;2022-12-10T12:14:51;100382.38;;;8.41;44.31
29383;BME280;16365;51.598;7.668;2022-12-10T12:17:24;100391.13;;;8.43;45.19
29383;BME280;16365;51.598;7.668;2022-12-10T12:19:56;100386.91;;;8.46;45.25
29383;BME280;16365;51.598;7.668;2022-12-10T12:22:42;100387.41;;;8.48;44.58
29383;BME280;16365;51.598;7.668;2022-12-10T12:25:23;100389.38;;;8.47;45.04
29383;BME280;16365;51.598;7.668;2022-12-10T12:28:01;100380.25;;;8.47;44.26
29383;BME280;16365;51.598;7.668;2022-12-10T12:30:32;100386.25;;;8.49;44.94
29383;BME280;16365;51.598;7.668;2022-12-10T12:33:05;100373.09;;;8.46;44.46
29383;BME280;16365;51.598;7.668;2022-12-10T12:35:44;100382.50;;;8.45;44.24
29383;BME280;16365;51.598;7.668;2022-12-10T12:38:30;100384.00;;;8.42;44.66
29383;BME280;16365;51.598;7.668;2022-12-10T12:41:29;100382.03;;;8.43;44.71
29383;BME280;16365;51.598;7.668;2022-12-10T12:44:03;100388.72;;;8.42;44.47
29383;BME280;16365;51.598;7.668;2022-12-10T12:46:45;100394.06;;;8.38;44.36
29383;BME280;16365;51.598;7.668;2022-12-10T12:49:24;100388.53;;;8.38;44.26
29383;BME280;16365;51.598;7.668;2022-12-10T12:51:58;100385.75;;;8.38;44.84
29383;BME280;16365;51.598;7.668;2022-12-10T12:54:26;100387.72;;;8.38;45.59
29383;BME280;16365;51.598;7.668;2022-12-10T13:00:03;100381.66;;;8.36;44.43
29383;BME280;16365;51.598;7.668;2022-12-10T13:05:28;100386.91;;;8.37;45.28
29383;BME280;16365;51.598;7.668;2022-12-10T13:08:22;100383.59;;;8.35;44.44
29383;BME280;16365;51.598;7.668;2022-12-10T13:14:02;100387.16;;;8.36;44.56
29383;BME280;16365;51.598;7.668;2022-12-10T13:24:20;100389.09;;;8.27;44.78
29383;BME280;16365;51.598;7.668;2022-12-10T13:29:58;100388.75;;;8.19;44.26
29383;BME280;16365;51.598;7.668;2022-12-10T13:43:38;100400.13;;;8.18;44.46
29383;BME280;16365;51.598;7.668;2022-12-10T13:48:57;100404.00;;;8.17;45.25
29383;BME280;16365;51.598;7.668;2022-12-10T13:51:49;100409.84;;;8.15;44.56
29383;BME280;16365;51.598;7.668;2022-12-10T13:54:55;100407.09;;;8.15;44.66
29383;BME280;16365;51.598;7.668;2022-12-10T13:57:50;100416.53;;;8.14;44.88
29383;BME280;16365;51.598;7.668;2022-12-10T14:00:22;100407.91;;;8.16;45.03
29383;BME280;16365;51.598;7.668;2022-12-10T14:03:03;100398.81;;;8.15;45.28
29383;BME280;16365;51.598;7.668;2022-12-10T14:08:31;100415.84;;;8.09;44.91
29383;BME280;16365;51.598;7.668;2022-12-10T14:10:58;100410.34;;;8.09;45.71
29383;BME280;16365;51.598;7.668;2022-12-10T14:13:35;100422.81;;;8.06;44.86
29383;BME280;16365;51.598;7.668;2022-12-10T14:16:05;100422.00;;;8.06;45.28
29383;BME280;16365;51.598;7.668;2022-12-10T14:18:36;100424.75;;;8.06;45.78
29383;BME280;16365;51.598;7.668;2022-12-10T14:21:05;100421.19;;;8.05;45.01
29383;BME280;16365;51.598;7.668;2022-12-10T14:23:34;100422.00;;;8.06;45.80
29383;BME280;16365;51.598;7.668;2022-12-10T14:26:17;100422.81;;;8.06;44.88
29383;BME280;16365;51.598;7.668;2022-12-10T14:29:08;100423.13;;;8.05;45.11
29383;BME280;16365;51.598;7.668;2022-12-10T14:31:43;100425.28;;;8.08;45.68
29383;BME280;16365;51.598;7.668;2022-12-10T14:34:15;100423.31;;;8.08;45.19
29383;BME280;16365;51.598;7.668;2022-12-10T14:36:48;100426.91;;;8.09;45.12
29383;BME280;16365;51.598;7.668;2022-12-10T14:39:25;100423.00;;;8.10;45.38
29383;BME280;16365;51.598;7.668;2022-12-10T14:41:56;100431.75;;;8.12;45.49